地図

経路データ

SID SEASON NUMBER BASIN SUBBASIN NAME ISO_TIME NATURE LAT LON WMO_WIND WMO_PRES WMO_AGENCY TRACK_TYPE DIST2LAND LANDFALL IFLAG USA_AGENCY USA_ATCF_ID USA_LAT USA_LON USA_RECORD USA_STATUS USA_WIND USA_PRES USA_SSHS USA_R34_NE USA_R34_SE USA_R34_SW USA_R34_NW USA_R50_NE USA_R50_SE USA_R50_SW USA_R50_NW USA_R64_NE USA_R64_SE USA_R64_SW USA_R64_NW USA_POCI USA_ROCI USA_RMW USA_EYE TOKYO_LAT TOKYO_LON TOKYO_GRADE TOKYO_WIND TOKYO_PRES TOKYO_R50_DIR TOKYO_R50_LONG TOKYO_R50_SHORT TOKYO_R30_DIR TOKYO_R30_LONG TOKYO_R30_SHORT TOKYO_LAND CMA_LAT CMA_LON CMA_CAT CMA_WIND CMA_PRES HKO_LAT HKO_LON HKO_CAT HKO_WIND HKO_PRES NEWDELHI_LAT NEWDELHI_LON NEWDELHI_GRADE NEWDELHI_WIND NEWDELHI_PRES NEWDELHI_CI NEWDELHI_DP NEWDELHI_POCI REUNION_LAT REUNION_LON REUNION_TYPE REUNION_WIND REUNION_PRES REUNION_TNUM REUNION_CI REUNION_RMW REUNION_R34_NE REUNION_R34_SE REUNION_R34_SW REUNION_R34_NW REUNION_R50_NE REUNION_R50_SE REUNION_R50_SW REUNION_R50_NW REUNION_R64_NE REUNION_R64_SE REUNION_R64_SW REUNION_R64_NW BOM_LAT BOM_LON BOM_TYPE BOM_WIND BOM_PRES BOM_TNUM BOM_CI BOM_RMW BOM_R34_NE BOM_R34_SE BOM_R34_SW BOM_R34_NW BOM_R50_NE BOM_R50_SE BOM_R50_SW BOM_R50_NW BOM_R64_NE BOM_R64_SE BOM_R64_SW BOM_R64_NW BOM_ROCI BOM_POCI BOM_EYE BOM_POS_METHOD BOM_PRES_METHOD NADI_LAT NADI_LON NADI_CAT NADI_WIND NADI_PRES WELLINGTON_LAT WELLINGTON_LON WELLINGTON_WIND WELLINGTON_PRES DS824_LAT DS824_LON DS824_STAGE DS824_WIND DS824_PRES TD9636_LAT TD9636_LON TD9636_STAGE TD9636_WIND TD9636_PRES TD9635_LAT TD9635_LON TD9635_WIND TD9635_PRES TD9635_ROCI NEUMANN_LAT NEUMANN_LON NEUMANN_CLASS NEUMANN_WIND NEUMANN_PRES MLC_LAT MLC_LON MLC_CLASS MLC_WIND MLC_PRES USA_GUST BOM_GUST BOM_GUST_PER REUNION_GUST REUNION_GUST_PER USA_SEAHGT USA_SEARAD_NE USA_SEARAD_SE USA_SEARAD_SW USA_SEARAD_NW STORM_SPEED STORM_DIR
1943257N15147 1943 63 WP MM NOT_NAMED 1943-09-14 09:00:00 NR 14.7000 147.100 main 1882 1862 __________O___ -1 14.7000 147.100 7 37 264
1943257N15147 1943 63 WP MM NOT_NAMED 1943-09-14 12:00:00 NR 14.5036 145.222 main 1866 1860 __________P___ -1 14.5036 145.222 7 36 264
1943257N15147 1943 63 WP MM NOT_NAMED 1943-09-14 15:00:00 NR 14.3080 143.455 main 1868 1792 __________P___ -1 14.3080 143.455 7 32 263
1943257N15147 1943 63 WP MM NOT_NAMED 1943-09-14 18:00:00 NR 14.1329 141.912 main 1782 1663 __________P___ -1 14.1329 141.912 7 27 263
1943257N15147 1943 63 WP MM NOT_NAMED 1943-09-14 21:00:00 NR 14.0000 140.700 main 1652 1565 __________O___ -1 14.0000 140.700 7 20 264
1943257N15147 1943 63 WP MM NOT_NAMED 1943-09-15 00:00:00 NR 13.9283 139.885 main 1565 1512 __________P___ -1 13.9283 139.885 7 13 267
1943257N15147 1943 63 WP MM NOT_NAMED 1943-09-15 03:00:00 NR 13.9221 139.360 main 1512 1472 __________P___ -1 13.9221 139.360 7 9 273
1943257N15147 1943 63 WP MM NOT_NAMED 1943-09-15 06:00:00 NR 13.9802 138.980 main 1472 1432 __________P___ -1 13.9802 138.980 7 8 284
1943257N15147 1943 63 WP MM NOT_NAMED 1943-09-15 09:00:00 NR 14.1000 138.600 main 1432 1373 __________O___ -1 14.1000 138.600 7 10 287
1943257N15147 1943 63 WP MM NOT_NAMED 1943-09-15 12:00:00 NR 14.2754 138.008 main 1373 1313 __________P___ -1 14.2754 138.008 7 12 289
1943257N15147 1943 63 WP MM NOT_NAMED 1943-09-15 15:00:00 NR 14.5047 137.388 main 1313 1254 __________P___ -1 14.5047 137.388 7 13 292
1943257N15147 1943 63 WP MM NOT_NAMED 1943-09-15 18:00:00 NR 14.7566 136.749 main 1245 1188 __________P___ -1 14.7566 136.749 7 13 292
1943257N15147 1943 63 WP MM NOT_NAMED 1943-09-15 21:00:00 NR 15.0000 136.100 main 1188 1128 __________O___ -1 15.0000 136.100 7 13 288
1943257N15147 1943 63 WP MM NOT_NAMED 1943-09-16 00:00:00 NR 15.1559 135.480 main 1131 1073 __________P___ -1 15.1559 135.480 7 12 284
1943257N15147 1943 63 WP MM NOT_NAMED 1943-09-16 03:00:00 NR 15.3036 134.850 main 1073 1009 __________P___ -1 15.3036 134.850 7 13 284
1943257N15147 1943 63 WP MM NOT_NAMED 1943-09-16 06:00:00 NR 15.4745 134.195 main 1009 948 __________P___ -1 15.4745 134.195 7 14 287
1943257N15147 1943 63 WP MM NOT_NAMED 1943-09-16 09:00:00 NR 15.7000 133.500 main 948 885 __________O___ -1 15.7000 133.500 7 15 290
1943257N15147 1943 63 WP MM NOT_NAMED 1943-09-16 12:00:00 NR 16.0063 132.695 main 885 828 __________P___ -1 16.0063 132.695 7 17 293
1943257N15147 1943 63 WP MM NOT_NAMED 1943-09-16 15:00:00 NR 16.3691 131.856 main 834 784 __________P___ -1 16.3691 131.856 7 18 296
1943257N15147 1943 63 WP MM NOT_NAMED 1943-09-16 18:00:00 NR 16.7721 131.039 main 778 732 __________P___ -1 16.7721 131.039 7 17 299
1943257N15147 1943 63 WP MM NOT_NAMED 1943-09-16 21:00:00 NR 17.2000 130.300 main 732 695 __________O___ -1 17.2000 130.300 7 15 302
1943257N15147 1943 63 WP MM NOT_NAMED 1943-09-17 00:00:00 NR 17.5826 129.680 main 702 681 __________P___ -1 17.5826 129.680 7 14 306
1943257N15147 1943 63 WP MM NOT_NAMED 1943-09-17 03:00:00 NR 17.9937 129.148 main 680 675 __________P___ -1 17.9937 129.148 7 13 313
1943257N15147 1943 63 WP MM NOT_NAMED 1943-09-17 06:00:00 NR 18.4580 128.693 main 675 634 __________P___ -1 18.4580 128.693 7 13 321
1943257N15147 1943 63 WP MM NOT_NAMED 1943-09-17 09:00:00 NR 19.0000 128.300 main 635 603 __________O___ -1 19.0000 128.300 7 15 329
1943257N15147 1943 63 WP MM NOT_NAMED 1943-09-17 12:00:00 NR 19.6902 127.895 main 606 591 __________P___ -1 19.6902 127.895 7 16 334
1943257N15147 1943 63 WP MM NOT_NAMED 1943-09-17 15:00:00 NR 20.4496 127.552 main 599 593 __________P___ -1 20.4496 127.552 7 16 339
1943257N15147 1943 63 WP MM NOT_NAMED 1943-09-17 18:00:00 NR 21.2092 127.283 main 609 600 __________P___ -1 21.2092 127.283 7 15 344
1943257N15147 1943 63 WP MM NOT_NAMED 1943-09-17 21:00:00 NR 21.9000 127.100 main 600 570 __________O___ -1 21.9000 127.100 7 13 347
1943257N15147 1943 63 WP MM NOT_NAMED 1943-09-18 00:00:00 NR 22.4488 126.976 main 570 539 __________P___ -1 22.4488 126.976 7 10 352
1943257N15147 1943 63 WP MM NOT_NAMED 1943-09-18 03:00:00 NR 22.9192 126.941 main 539 531 __________P___ -1 22.9192 126.941 7 9 0
1943257N15147 1943 63 WP MM NOT_NAMED 1943-09-18 06:00:00 NR 23.3301 126.986 main 535 529 __________P___ -1 23.3301 126.986 7 8 11
1943257N15147 1943 63 WP MM NOT_NAMED 1943-09-18 09:00:00 NR 23.7000 127.100 main 534 530 __________O___ -1 23.7000 127.100 7 7 17
1943257N15147 1943 63 WP MM NOT_NAMED 1943-09-18 12:00:00 NR 24.0076 127.209 main 537 535 __________P___ -1 24.0076 127.209 7 6 24
1943257N15147 1943 63 WP MM NOT_NAMED 1943-09-18 15:00:00 NR 24.2890 127.389 main 550 549 __________P___ -1 24.2890 127.389 7 7 34
1943257N15147 1943 63 WP MM NOT_NAMED 1943-09-18 18:00:00 NR 24.6010 127.648 main 566 566 __________P___ -1 24.6010 127.648 7 9 38
1943257N15147 1943 63 WP MM NOT_NAMED 1943-09-18 21:00:00 NR 25.0000 128.000 main 604 604 __________O___ -1 25.0000 128.000 7 12 40
1943257N15147 1943 63 WP MM NOT_NAMED 1943-09-19 00:00:00 NR 25.5260 128.499 main 650 571 __________P___ -1 25.5260 128.499 7 15 40
1943257N15147 1943 63 WP MM NOT_NAMED 1943-09-19 03:00:00 NR 26.1454 129.081 main 568 480 __________P___ -1 26.1454 129.081 7 17 39
1943257N15147 1943 63 WP MM NOT_NAMED 1943-09-19 06:00:00 NR 26.8417 129.674 main 478 382 __________P___ -1 26.8417 129.674 7 18 34
1943257N15147 1943 63 WP MM NOT_NAMED 1943-09-19 09:00:00 NR 27.6000 130.200 main 382 301 __________O___ -1 27.6000 130.200 7 16 26
1943257N15147 1943 63 WP MM NOT_NAMED 1943-09-19 12:00:00 NR 28.2923 130.463 main 301 223 __________P___ -1 28.2923 130.463 7 15 16
1943257N15147 1943 63 WP MM NOT_NAMED 1943-09-19 15:00:00 NR 29.0557 130.661 main 212 124 __________P___ -1 29.0557 130.661 7 17 13
1943257N15147 1943 63 WP MM NOT_NAMED 1943-09-19 18:00:00 NR 29.9414 130.903 main 124 43 __________P___ -1 29.9414 130.903 7 20 16
1943257N15147 1943 63 WP MM NOT_NAMED 1943-09-19 21:00:00 NR 31.0000 131.300 main 38 9 __________O___ -1 31.0000 131.300 7 26 23
1943257N15147 1943 63 WP MM NOT_NAMED 1943-09-20 00:00:00 NR 32.3521 132.078 main 37 0 __________P___ -1 32.3521 132.078 7 32 27
1943257N15147 1943 63 WP MM NOT_NAMED 1943-09-20 03:00:00 NR 33.8565 133.038 main 0 0 __________P___ -1 33.8565 133.038 7 35 28
1943257N15147 1943 63 WP MM NOT_NAMED 1943-09-20 06:00:00 NR 35.3816 134.057 main 0 0 __________P___ -1 35.3816 134.057 7 34 29
1943257N15147 1943 63 WP MM NOT_NAMED 1943-09-20 09:00:00 NR 36.8000 135.000 main 112 111 __________O___ -1 36.8000 135.000 7 29 27
1943257N15147 1943 63 WP MM NOT_NAMED 1943-09-20 12:00:00 NR 37.9380 135.679 main 111 111 __________P___ -1 37.9380 135.679 7 24 24
1943257N15147 1943 63 WP MM NOT_NAMED 1943-09-20 15:00:00 NR 38.9637 136.242 main 185 183 __________P___ -1 38.9637 136.242 7 22 22
1943257N15147 1943 63 WP MM NOT_NAMED 1943-09-20 18:00:00 NR 39.9328 136.733 main 255 227 __________P___ -1 39.9328 136.733 7 21 21
1943257N15147 1943 63 WP MM NOT_NAMED 1943-09-20 21:00:00 NR 40.9000 137.200 main 229 178 __________O___ -1 40.9000 137.200 7 22 21
1943257N15147 1943 63 WP MM NOT_NAMED 1943-09-21 00:00:00 NR 41.9466 137.762 main 170 126 __________P___ -1 41.9466 137.762 7 23 21
1943257N15147 1943 63 WP MM NOT_NAMED 1943-09-21 03:00:00 NR 42.9999 138.311 main 129 126 __________P___ -1 42.9999 138.311 7 22 20
1943257N15147 1943 63 WP MM NOT_NAMED 1943-09-21 06:00:00 NR 44.0532 138.830 main 149 143 __________P___ -1 44.0532 138.830 7 22 19
1943257N15147 1943 63 WP MM NOT_NAMED 1943-09-21 09:00:00 NR 45.1000 139.300 main 146 116 __________O___ -1 45.1000 139.300 7 22 17
1943257N15147 1943 63 WP MM NOT_NAMED 1943-09-21 12:00:00 NR 46.1356 139.707 main 119 78 __________P___ -1 46.1356 139.707 7 21 14
1943257N15147 1943 63 WP MM NOT_NAMED 1943-09-21 15:00:00 NR 47.1622 140.062 main 82 36 __________P___ -1 47.1622 140.062 7 21 13
1943257N15147 1943 63 WP MM NOT_NAMED 1943-09-21 18:00:00 NR 48.1829 140.386 main 26 14 __________P___ -1 48.1829 140.386 7 21 12
1943257N15147 1943 63 WP MM NOT_NAMED 1943-09-21 21:00:00 NR 49.2000 140.700 main 21 __________O___ -1 49.2000 140.700 7 21 11

デジタル台風データ・検索

IBTrACS Databaseについて

本データベースは、米国NOAAが公開する1842年以降の世界の熱帯低気圧のベストトラックデータアーカイブInternational Best Track Archive for Climate Stewardship (IBTrACS)を、ウェブで閲覧しやすい形式に変換したものです。

最終更新日:2021-10-25